createdAt,value
2023-04-24T16:58:54.186Z,100183.19
2023-04-24T17:03:58.371Z,100174.50
2023-04-24T17:09:03.436Z,100176.69
2023-04-24T17:14:09.359Z,100184.34
2023-04-24T17:19:13.339Z,100186.72
2023-04-24T17:24:17.432Z,100195.03
2023-04-24T17:29:23.566Z,100192.38
2023-04-24T17:34:27.878Z,100191.69
2023-04-24T17:39:32.042Z,100196.22
2023-04-24T17:44:38.300Z,100199.09
2023-04-24T17:49:43.130Z,100202.13
2023-04-24T17:54:49.179Z,100202.81
2023-04-24T17:59:55.232Z,100210.16
2023-04-24T18:04:59.580Z,100212.94
2023-04-24T18:10:03.799Z,100210.78
2023-04-24T18:15:14.830Z,100224.06
2023-04-24T18:20:20.301Z,100231.50
2023-04-24T18:25:26.222Z,100232.13
2023-04-24T18:30:34.168Z,100232.13
2023-04-24T18:35:40.412Z,100245.16
2023-04-24T18:40:44.632Z,100258.88
2023-04-24T18:45:50.829Z,100261.94
2023-04-24T18:50:54.856Z,100272.38
2023-04-24T18:55:58.834Z,100269.16
2023-04-24T19:01:06.849Z,100276.50
2023-04-24T19:06:12.088Z,100282.16
2023-04-24T19:11:16.126Z,100290.38
2023-04-24T19:16:22.577Z,100287.47
2023-04-24T19:21:26.876Z,100293.03
2023-04-24T19:26:31.025Z,100307.97
2023-04-24T19:31:37.362Z,100306.41
2023-04-24T19:36:42.491Z,100311.63
2023-04-24T19:41:46.476Z,100329.56
2023-04-24T19:46:53.192Z,100326.09
2023-04-24T19:51:57.295Z,100323.47
2023-04-24T19:57:23.335Z,100315.72
2023-04-24T20:02:42.493Z,100308.84
2023-04-24T20:07:51.172Z,100314.03
2023-04-24T20:12:55.661Z,100311.50
2023-04-24T20:18:01.988Z,100314.03
2023-04-24T20:23:06.563Z,100321.84
2023-04-24T20:28:10.511Z,100319.47
2023-04-24T20:33:16.466Z,100323.97
2023-04-24T20:38:22.011Z,100325.09
2023-04-24T20:43:28.379Z,100339.84
2023-04-24T20:48:35.734Z,100338.38
2023-04-24T20:53:39.945Z,100331.78
2023-04-24T20:58:46.261Z,100324.38
2023-04-24T21:03:53.328Z,100344.22
2023-04-24T21:08:58.190Z,100347.84
2023-04-24T21:14:02.219Z,100346.34
2023-04-24T21:19:08.555Z,100337.03
2023-04-24T21:24:12.558Z,100342.28
2023-04-24T21:29:16.806Z,100339.00
2023-04-24T21:34:23.129Z,100334.00
2023-04-24T21:39:27.404Z,100329.84
2023-04-24T21:44:31.970Z,100339.41
2023-04-24T21:49:38.200Z,100344.63
2023-04-24T21:54:42.164Z,100336.16
2023-04-24T21:59:47.076Z,100342.16
2023-04-24T22:04:55.610Z,100331.09
